createdAt,value
2018-01-21T00:07:33.166Z,26.5
2018-01-21T00:28:12.670Z,26.6
2018-01-21T00:31:09.285Z,26.6
2018-01-21T00:34:06.180Z,26.6
2018-01-21T00:37:03.038Z,26.6
2018-01-21T00:54:45.630Z,26.9
2018-01-21T01:00:39.112Z,27
2018-01-21T01:06:33.194Z,27.1
2018-01-21T01:09:30.054Z,27.1
2018-01-21T01:12:27.766Z,27.2
2018-01-21T01:18:21.561Z,27.2
2018-01-21T01:24:15.656Z,27.3
2018-01-21T01:27:12.128Z,27.3
2018-01-21T01:36:03.169Z,27.4
2018-01-21T01:44:54.268Z,27.3
2018-01-21T01:47:51.580Z,27.3
2018-01-21T01:53:45.185Z,27.4
2018-01-21T01:56:42.174Z,27.4
2018-01-21T01:59:39.303Z,27.4
2018-01-21T02:02:36.177Z,27.4
2018-01-21T02:05:33.341Z,27.5
2018-01-21T02:08:30.708Z,27.5
2018-01-21T02:11:27.604Z,27.6
2018-01-21T02:14:24.931Z,27.6
2018-01-21T02:17:21.245Z,27.6
2018-01-21T02:23:15.296Z,27.6
2018-01-21T02:26:12.233Z,27.7
2018-01-21T02:29:09.275Z,27.6
2018-01-21T02:32:06.195Z,27.6
2018-01-21T02:38:00.290Z,27.7
2018-01-21T02:40:57.223Z,27.7
2018-01-21T02:43:54.846Z,27.7
2018-01-21T02:46:51.252Z,27.7
2018-01-21T02:49:48.288Z,27.6
2018-01-21T02:52:45.246Z,27.7
2018-01-21T02:55:42.306Z,27.8
2018-01-21T03:01:36.318Z,27.9
2018-01-21T03:04:33.270Z,27.9
2018-01-21T03:07:30.283Z,28
2018-01-21T03:10:27.324Z,28.1
2018-01-21T03:13:24.902Z,28.2
2018-01-21T03:16:21.260Z,28.2
2018-01-21T03:19:18.361Z,28.2
2018-01-21T03:22:15.310Z,28.3
2018-01-21T03:25:12.324Z,28.4
2018-01-21T03:28:09.283Z,28.5
2018-01-21T03:31:06.349Z,28.6
2018-01-21T03:34:03.724Z,28.7
2018-01-21T03:37:00.779Z,28.7
2018-01-21T03:39:57.297Z,28.6
2018-01-21T03:42:54.807Z,28.6
2018-01-21T03:45:51.339Z,28.6
2018-01-21T03:54:42.367Z,28.7
2018-01-21T04:03:33.359Z,28.9
2018-01-21T04:15:21.456Z,29.2
2018-01-21T04:18:18.339Z,29.2
2018-01-21T04:27:09.403Z,29.2
2018-01-21T04:30:06.387Z,29.2
2018-01-21T04:36:00.448Z,29.3
2018-01-21T04:38:57.373Z,29.3
2018-01-21T04:41:54.879Z,29.4
2018-01-21T04:44:51.353Z,29.4
2018-01-21T04:50:45.513Z,29.6
2018-01-21T04:53:42.408Z,29.7
2018-01-21T04:56:39.444Z,29.8
2018-01-21T04:59:36.392Z,29.8
2018-01-21T05:02:33.869Z,29.9
2018-01-21T05:05:30.371Z,29.9
2018-01-21T05:08:27.905Z,30
2018-01-21T05:11:24.952Z,30.1
2018-01-21T05:14:21.520Z,30.1
2018-01-21T05:20:15.508Z,30.4
2018-01-21T05:23:12.474Z,30.5
2018-01-21T05:26:09.483Z,30.6
2018-01-21T05:29:06.454Z,30.9
2018-01-21T05:37:57.514Z,31.4
2018-01-21T05:43:51.589Z,31.6
2018-01-21T05:46:48.915Z,31.7
2018-01-21T05:49:45.531Z,31.7
2018-01-21T05:52:42.507Z,31.6
2018-01-21T05:58:36.535Z,31.6
2018-01-21T06:04:30.536Z,31.5
2018-01-21T06:07:27.504Z,31.5
2018-01-21T06:16:18.623Z,31.3
2018-01-21T06:19:15.507Z,31.2
2018-01-21T06:22:12.564Z,31.3
2018-01-21T06:25:09.525Z,31.3
2018-01-21T06:28:06.575Z,31.3
2018-01-21T06:31:03.586Z,31.3
2018-01-21T06:34:00.573Z,31.3
2018-01-21T06:36:57.530Z,31.3
2018-01-21T06:39:54.622Z,31.4
2018-01-21T06:42:51.674Z,31.2
2018-01-21T06:45:49.112Z,31.2
2018-01-21T06:48:46.016Z,31.1
2018-01-21T06:51:42.625Z,31.1
2018-01-21T06:57:36.632Z,31.1
2018-01-21T07:00:33.583Z,31.2
2018-01-21T07:03:30.591Z,31.3
2018-01-21T07:09:24.647Z,31.6
2018-01-21T07:12:21.695Z,31.8
2018-01-21T07:15:18.690Z,31.8
2018-01-21T07:18:15.617Z,31.9
2018-01-21T07:21:12.697Z,32
2018-01-21T07:24:09.599Z,32.1
2018-01-21T07:27:06.678Z,32.2
2018-01-21T07:33:00.664Z,32.2
2018-01-21T07:35:57.687Z,32.2
2018-01-21T07:38:54.699Z,32.3
2018-01-21T07:41:51.636Z,32.4
2018-01-21T07:44:48.845Z,32.3
2018-01-21T07:47:45.720Z,32.4
2018-01-21T07:50:42.746Z,32.4
2018-01-21T07:53:39.698Z,32.4
2018-01-21T07:59:33.738Z,32
2018-01-21T08:02:31.222Z,31.8
2018-01-21T08:05:28.169Z,31.6
2018-01-21T08:14:18.896Z,31.2
2018-01-21T08:17:15.736Z,31.1
2018-01-21T08:20:12.763Z,31
2018-01-21T08:23:09.760Z,30.9
2018-01-21T08:26:07.163Z,30.8
2018-01-21T08:29:03.748Z,30.8
2018-01-21T08:32:00.799Z,30.8
2018-01-21T08:34:57.787Z,30.8
2018-01-21T08:37:54.773Z,30.7
2018-01-21T08:40:51.825Z,30.7
2018-01-21T08:43:48.781Z,30.6
2018-01-21T08:46:45.792Z,30.5
2018-01-21T08:49:42.825Z,30.5
2018-01-21T08:52:39.786Z,30.4
2018-01-21T08:55:36.842Z,30.4
2018-01-21T08:58:33.768Z,30.4
2018-01-21T09:01:30.869Z,30.3
2018-01-21T09:07:24.832Z,30.3
2018-01-21T09:10:21.791Z,30.2
2018-01-21T09:13:19.336Z,30.3
2018-01-21T09:19:12.898Z,30.2
2018-01-21T09:22:09.800Z,30.2
2018-01-21T09:28:04.226Z,30
2018-01-21T09:31:00.858Z,30.1
2018-01-21T09:33:57.859Z,30.1
2018-01-21T09:36:54.836Z,30
2018-01-21T09:39:51.892Z,30
2018-01-21T09:42:49.409Z,30
2018-01-21T09:45:45.925Z,29.9
2018-01-21T09:48:42.874Z,29.9
2018-01-21T09:51:39.879Z,29.9
2018-01-21T10:00:30.884Z,29.8
2018-01-21T10:03:27.849Z,29.8
2018-01-21T10:06:24.893Z,29.7
2018-01-21T10:09:22.304Z,29.8
2018-01-21T10:12:19.505Z,29.7
2018-01-21T10:15:15.922Z,29.7
2018-01-21T10:18:13.018Z,29.7
2018-01-21T10:21:09.882Z,29.6
2018-01-21T10:27:03.951Z,29.6
2018-01-21T10:30:00.942Z,29.6
2018-01-21T10:32:57.957Z,29.6
2018-01-21T10:35:54.938Z,29.5
2018-01-21T10:41:48.990Z,29.4
2018-01-21T10:44:45.976Z,29.4
2018-01-21T10:47:42.984Z,29.4
2018-01-21T10:50:39.942Z,29.3
2018-01-21T10:53:37.006Z,29.3
2018-01-21T10:56:33.936Z,29.2
2018-01-21T10:59:30.993Z,29.2
2018-01-21T11:02:28.012Z,29.2
2018-01-21T11:05:25.167Z,29.1
2018-01-21T11:08:22.396Z,29
2018-01-21T11:14:16.068Z,29
2018-01-21T11:17:13.001Z,28.9
2018-01-21T11:20:10.007Z,28.8
2018-01-21T11:23:06.981Z,28.8
2018-01-21T11:26:04.111Z,28.7
2018-01-21T11:31:57.984Z,28.6
2018-01-21T11:34:54.986Z,28.6
2018-01-21T11:37:52.021Z,28.5
2018-01-21T11:40:49.519Z,28.4
2018-01-21T11:43:46.058Z,28.4
2018-01-21T11:46:43.034Z,28.4
2018-01-21T11:49:40.039Z,28.3
2018-01-21T11:52:37.045Z,28.3
2018-01-21T11:55:34.063Z,28.2
2018-01-21T11:58:31.025Z,28.2
2018-01-21T12:07:22.064Z,28.2
2018-01-21T12:10:19.098Z,28.2
2018-01-21T12:13:16.226Z,28.2
2018-01-21T12:16:13.044Z,28.2
2018-01-21T12:22:07.076Z,28.2
2018-01-21T12:25:04.069Z,28.2
2018-01-21T12:28:01.108Z,28.2
2018-01-21T12:30:58.063Z,28.2
2018-01-21T12:33:55.105Z,28.2
2018-01-21T12:36:52.059Z,28.1
2018-01-21T12:39:49.123Z,28.1
2018-01-21T12:42:46.633Z,28
2018-01-21T12:45:43.165Z,28
2018-01-21T12:48:40.072Z,28
2018-01-21T12:51:37.138Z,27.9
2018-01-21T12:54:34.115Z,27.9
2018-01-21T13:00:28.140Z,27.9
2018-01-21T13:03:25.110Z,27.9
2018-01-21T13:06:22.629Z,27.9
2018-01-21T13:09:19.092Z,27.9
2018-01-21T13:12:16.355Z,27.8
2018-01-21T13:15:13.137Z,27.8
2018-01-21T13:18:10.174Z,27.8
2018-01-21T13:24:04.193Z,27.8
2018-01-21T13:27:01.187Z,27.8
2018-01-21T13:32:55.192Z,27.8
2018-01-21T13:35:52.543Z,27.7
2018-01-21T13:38:49.221Z,27.7
2018-01-21T13:41:46.402Z,27.8
2018-01-21T13:44:43.228Z,27.7
2018-01-21T13:47:40.177Z,27.8
2018-01-21T13:53:34.225Z,27.7
2018-01-21T13:59:28.360Z,27.7
2018-01-21T14:02:25.271Z,27.7
2018-01-21T14:05:22.307Z,27.6
2018-01-21T14:08:19.302Z,27.6
2018-01-21T14:11:16.525Z,27.6
2018-01-21T14:14:13.677Z,27.6
2018-01-21T14:17:10.307Z,27.6
2018-01-21T14:23:04.301Z,27.6
2018-01-21T14:26:01.280Z,27.6
2018-01-21T14:28:58.316Z,27.7
2018-01-21T14:31:55.284Z,27.7
2018-01-21T14:34:52.802Z,27.7
2018-01-21T14:37:49.318Z,27.7
2018-01-21T14:40:46.450Z,27.7
2018-01-21T14:43:43.300Z,27.7
2018-01-21T14:46:40.320Z,27.8
2018-01-21T14:49:37.329Z,27.8
2018-01-21T14:55:31.778Z,27.8
2018-01-21T14:58:28.325Z,27.8
2018-01-21T15:01:25.762Z,27.8
2018-01-21T15:04:22.313Z,27.9
2018-01-21T15:07:19.334Z,27.8
2018-01-21T15:10:16.533Z,27.8
2018-01-21T15:13:13.364Z,27.8
2018-01-21T15:16:10.343Z,27.8
2018-01-21T15:19:07.354Z,27.8
2018-01-21T15:22:04.739Z,27.8
2018-01-21T15:27:58.367Z,27.7
2018-01-21T15:30:56.354Z,27.7
2018-01-21T15:36:49.819Z,27.6
2018-01-21T15:39:46.739Z,27.6
2018-01-21T15:42:43.960Z,27.6
2018-01-21T15:45:40.362Z,27.6
2018-01-21T15:48:37.428Z,27.6
2018-01-21T15:51:34.340Z,27.6
2018-01-21T15:57:28.807Z,27.5
2018-01-21T16:00:25.363Z,27.4
2018-01-21T16:03:22.447Z,27.4
2018-01-21T16:09:16.386Z,27.4
2018-01-21T16:12:13.456Z,27.4
2018-01-21T16:15:10.430Z,27.4
2018-01-21T16:21:04.434Z,27.4
2018-01-21T16:24:01.413Z,27.4
2018-01-21T16:26:58.440Z,27.4
2018-01-21T16:29:55.430Z,27.3
2018-01-21T16:32:52.502Z,27.3
2018-01-21T16:35:49.422Z,27.3
2018-01-21T16:41:43.612Z,27.3
2018-01-21T16:44:40.604Z,27.3
2018-01-21T16:47:37.474Z,27.3
2018-01-21T16:50:34.416Z,27.3
2018-01-21T16:53:31.475Z,27.4
2018-01-21T16:56:28.837Z,27.3
2018-01-21T16:59:25.915Z,27.4
2018-01-21T17:05:19.570Z,27.4
2018-01-21T17:08:16.540Z,27.4
2018-01-21T17:11:13.533Z,27.4
2018-01-21T17:14:10.874Z,27.4
2018-01-21T17:17:07.495Z,27.4
2018-01-21T17:20:04.867Z,27.4
2018-01-21T17:23:01.545Z,27.4
2018-01-21T17:25:58.865Z,27.4
2018-01-21T17:28:55.974Z,27.4
2018-01-21T17:34:49.583Z,27.3
2018-01-21T17:37:46.478Z,27.3
2018-01-21T17:40:43.668Z,27.3
2018-01-21T17:43:40.492Z,27.3
2018-01-21T17:49:35.020Z,27.3
2018-01-21T17:55:28.987Z,27.3
2018-01-21T17:58:25.516Z,27.3
2018-01-21T18:01:22.657Z,27.2
2018-01-21T18:04:19.675Z,27.2
2018-01-21T18:07:16.569Z,27.2
2018-01-21T18:13:11.160Z,27.2
2018-01-21T18:16:07.647Z,27.2
2018-01-21T18:19:04.571Z,27.2
2018-01-21T18:24:58.582Z,27.2
2018-01-21T18:27:55.576Z,27.2
2018-01-21T18:30:52.613Z,27.2
2018-01-21T18:33:49.567Z,27.2
2018-01-21T18:36:46.618Z,27.2
2018-01-21T18:42:40.636Z,27.2
2018-01-21T18:45:37.628Z,27.2
2018-01-21T18:48:34.652Z,27.2
2018-01-21T18:51:31.600Z,27.2
2018-01-21T19:00:22.719Z,27.2
2018-01-21T19:03:20.181Z,27.2
2018-01-21T19:06:17.009Z,27.1
2018-01-21T19:12:10.673Z,27.1
2018-01-21T19:15:07.609Z,27.1
2018-01-21T19:23:58.668Z,27.1
2018-01-21T19:26:55.631Z,27.1
2018-01-21T19:29:52.775Z,27.1
2018-01-21T19:35:46.675Z,27
2018-01-21T19:41:40.713Z,27
2018-01-21T19:44:38.105Z,27
2018-01-21T19:47:35.346Z,27
2018-01-21T19:50:31.718Z,27
2018-01-21T19:53:28.770Z,27
2018-01-21T19:56:25.698Z,27
2018-01-21T19:59:22.720Z,27
2018-01-21T20:02:19.853Z,27
2018-01-21T20:05:17.202Z,27
2018-01-21T20:08:13.687Z,27
2018-01-21T20:11:10.699Z,27
2018-01-21T20:14:07.731Z,27
2018-01-21T20:20:01.885Z,27
2018-01-21T20:22:58.708Z,26.9
2018-01-21T20:28:52.745Z,26.9
2018-01-21T20:34:46.776Z,26.9
2018-01-21T20:37:43.743Z,26.9
2018-01-21T20:40:41.224Z,26.9
2018-01-21T20:43:38.301Z,26.8
2018-01-21T20:46:34.800Z,26.9
2018-01-21T20:49:31.803Z,26.9
2018-01-21T20:52:28.797Z,26.8
2018-01-21T20:55:25.720Z,26.8
2018-01-21T21:04:16.861Z,26.8
2018-01-21T21:07:13.798Z,26.8
2018-01-21T21:10:10.809Z,26.8
2018-01-21T21:13:08.369Z,26.8
2018-01-21T21:16:05.278Z,26.8
2018-01-21T21:19:01.776Z,26.7
2018-01-21T21:21:58.862Z,26.7
2018-01-21T21:24:55.778Z,26.7
2018-01-21T21:30:49.829Z,26.7
2018-01-21T21:33:46.791Z,26.7
2018-01-21T21:36:43.876Z,26.7
2018-01-21T21:39:40.852Z,26.7
2018-01-21T21:45:35.281Z,26.6
2018-01-21T21:48:31.841Z,26.6
2018-01-21T21:51:28.909Z,26.6
2018-01-21T21:54:25.857Z,26.6
2018-01-21T21:57:22.918Z,26.6
2018-01-21T22:00:19.850Z,26.6
2018-01-21T22:03:16.880Z,26.6
2018-01-21T22:06:13.876Z,26.6
2018-01-21T22:09:10.976Z,26.6
2018-01-21T22:18:02.002Z,26.5
2018-01-21T22:23:56.402Z,26.5
2018-01-21T22:29:50.326Z,26.5
2018-01-21T22:35:43.960Z,26.4
2018-01-21T22:41:37.972Z,26.4
2018-01-21T22:44:34.923Z,26.4
2018-01-21T22:50:28.946Z,26.4
2018-01-21T22:56:22.944Z,26.4
2018-01-21T22:59:19.927Z,26.4
2018-01-21T23:02:17.021Z,26.4
2018-01-21T23:08:11.493Z,26.4
2018-01-21T23:11:07.927Z,26.4
2018-01-21T23:17:02.034Z,26.3
2018-01-21T23:19:59.413Z,26.3
2018-01-21T23:22:56.490Z,26.3
2018-01-21T23:25:53.103Z,26.4
2018-01-21T23:28:50.001Z,26.4
2018-01-21T23:31:47.367Z,26.3
2018-01-21T23:37:41.519Z,26.4
2018-01-21T23:40:37.968Z,26.4
2018-01-21T23:43:35.604Z,26.4
2018-01-21T23:46:31.951Z,26.3
2018-01-21T23:49:29.418Z,26.4
2018-01-21T23:52:25.987Z,26.3
2018-01-21T23:55:23.019Z,26.3
